Time;durP1;ratioP1;P1;durP2;ratioP2;P2;SDS_P1;SDS_P2;PMS_P1;PMS_P2;Temp;Humidity;BMP_temperature;BMP_pressure;BME280_temperature;BME280_humidity;BME280_pressure;Samples;Min_cycle;Max_cycle;Signal;HPM_P1;HPM_P2
2022/01/25 05:11:53;;;;;;;64.62;24.80;;;;;;;-6.48;89.80;102021.78;5561973;32;195314;-86
2022/01/25 05:15:00;;;;;;;64.22;26.50;;;;;;;-6.48;89.82;102016.63;5547568;32;34010;-86
2022/01/25 05:18:14;;;;;;;70.07;27.48;;;;;;;-6.39;90.08;102014.47;5549427;32;34595;-86
2022/01/25 05:24:41;;;;;;;;;;;;;;;-6.31;89.82;102007.06;5550441;32;34470;-86
2022/01/25 05:27:44;;;;;;;57.75;24.52;;;;;;;-6.23;90.30;102010.91;5549330;32;34301;-86
2022/01/25 05:30:46;;;;;;;63.72;26.45;;;;;;;-6.13;89.67;102017.38;5549513;32;34024;-86
2022/01/25 05:33:49;;;;;;;64.15;27.42;;;;;;;-6.09;88.36;102024.41;5547802;32;34565;-86
2022/01/25 05:36:57;;;;;;;61.88;25.73;;;;;;;-6.01;88.70;102014.41;5548128;32;34053;-86
2022/01/25 05:40:01;;;;;;;59.78;25.92;;;;;;;-5.97;86.58;102017.22;5548775;32;34059;-86
2022/01/25 05:46:20;;;;;;;64.72;26.70;;;;;;;-5.81;85.89;101997.22;5548911;32;33852;-86
2022/01/25 05:49:23;;;;;;;55.40;24.85;;;;;;;-5.74;85.59;101990.63;5549541;32;33852;-86
2022/01/25 05:52:26;;;;;;;61.72;25.50;;;;;;;-5.74;85.13;101991.47;5547742;32;33685;-86
2022/01/25 05:55:30;;;;;;;56.40;24.25;;;;;;;-5.58;84.80;101998.19;5547080;32;34309;-86
2022/01/25 05:58:33;;;;;;;58.38;25.70;;;;;;;-5.58;84.52;101993.03;5547435;32;33955;-86
2022/01/25 06:01:36;;;;;;;51.47;23.20;;;;;;;-5.71;85.30;101989.03;5548065;32;33881;-86
2022/01/25 06:04:39;;;;;;;51.67;22.92;;;;;;;-5.63;85.98;101998.84;5549213;32;34383;-86
2022/01/25 06:07:42;;;;;;;50.33;22.67;;;;;;;-5.59;85.60;102000.75;5547316;32;34639;-86
2022/01/25 06:10:45;;;;;;;41.83;19.65;;;;;;;-5.55;85.77;102006.09;5547032;32;35373;-86
2022/01/25 06:13:47;;;;;;;45.22;20.45;;;;;;;-5.47;84.30;102008.12;5546795;32;34214;-86
2022/01/25 06:16:50;;;;;;;42.90;18.95;;;;;;;-5.45;84.57;102006.47;5547015;32;34043;-86
2022/01/25 06:19:53;;;;;;;40.30;19.25;;;;;;;-5.42;84.03;102007.50;5546150;32;33601;-86
2022/01/25 06:22:56;;;;;;;44.22;20.33;;;;;;;-5.27;83.20;101989.16;5534860;32;33368;-86
2022/01/25 06:25:58;;;;;;;48.90;20.10;;;;;;;-5.31;83.43;101981.19;5534897;32;34138;-87
2022/01/25 06:29:01;;;;;;;48.22;21.25;;;;;;;-5.22;82.86;101979.00;5533377;32;34150;-87
2022/01/25 06:32:04;;;;;;;44.17;18.50;;;;;;;-5.19;83.51;101973.94;5530433;32;33946;-87
2022/01/25 06:35:08;;;;;;;46.35;18.25;;;;;;;-5.10;83.09;101985.47;5533776;32;34042;-87
2022/01/25 06:38:12;;;;;;;44.00;19.25;;;;;;;-5.13;83.06;101978.50;5533735;32;35021;-87
2022/01/25 06:41:17;;;;;;;43.53;19.30;;;;;;;-5.10;83.49;101977.72;5533761;32;34903;-87
2022/01/25 06:44:39;;;;;;;44.97;17.75;;;;;;;-4.99;82.61;101979.03;5532837;32;33568;-86
2022/01/25 06:48:06;;;;;;;42.70;18.27;;;;;;;-5.02;82.50;101973.75;5527861;32;35133;-84
2022/01/25 06:51:13;;;;;;;40.53;18.05;;;;;;;-4.92;82.80;101980.19;5532952;32;34027;-85
2022/01/25 06:54:16;;;;;;;43.22;19.15;;;;;;;-4.65;81.88;101980.41;5530917;32;33943;-84
2022/01/25 06:57:19;;;;;;;48.28;19.05;;;;;;;-4.66;81.13;101972.56;5528505;32;34068;-85
2022/01/25 07:00:23;;;;;;;46.60;19.02;;;;;;;-4.65;80.82;101980.41;5527781;32;34275;-83
2022/01/25 07:03:26;;;;;;;43.80;18.70;;;;;;;-4.58;81.19;101975.44;5527059;32;34066;-84
2022/01/25 07:06:29;;;;;;;47.88;19.48;;;;;;;-4.70;81.00;101978.44;5534149;32;34704;-84
2022/01/25 07:09:32;;;;;;;50.33;21.10;;;;;;;-4.69;81.65;101978.50;5527278;32;34269;-84
2022/01/25 07:12:35;;;;;;;45.47;20.35;;;;;;;-4.63;80.78;101975.28;5519924;32;33886;-84
2022/01/25 07:15:38;;;;;;;49.65;20.35;;;;;;;-4.50;80.26;101966.25;5527123;32;34221;-84
2022/01/25 07:18:41;;;;;;;44.55;20.92;;;;;;;-4.45;79.69;101977.69;5530630;32;34577;-84
2022/01/25 07:21:44;;;;;;;48.15;20.85;;;;;;;-4.51;80.36;101975.75;5533757;32;35659;-84
2022/01/25 07:24:47;;;;;;;44.38;21.20;;;;;;;-4.52;80.17;101989.50;5541146;32;34281;-84
2022/01/25 07:27:53;;;;;;;51.50;20.62;;;;;;;-4.33;79.38;101977.25;5544336;32;34262;-84
2022/01/25 07:30:56;;;;;;;44.03;20.48;;;;;;;-4.48;79.90;101972.41;5531983;32;34031;-84
2022/01/25 07:33:59;;;;;;;49.72;22.08;;;;;;;-4.30;79.16;101979.06;5532058;32;34018;-83
2022/01/25 07:37:06;;;;;;;47.28;21.00;;;;;;;-4.39;79.88;101984.78;5535292;32;34835;-86
2022/01/25 07:40:13;;;;;;;46.00;20.98;;;;;;;-4.22;78.85;101982.84;5520721;32;34209;-85
2022/01/25 07:43:21;;;;;;;53.97;22.33;;;;;;;-4.20;79.11;101976.91;5517098;32;33871;-86
2022/01/25 07:46:26;;;;;;;45.95;21.45;;;;;;;-4.30;79.26;101967.03;5517595;32;34453;-85
2022/01/25 07:49:33;;;;;;;62.83;23.15;;;;;;;-4.22;79.53;101983.72;5532849;32;34079;-87
2022/01/25 07:52:36;;;;;;;48.33;22.40;;;;;;;-4.31;80.14;101982.50;5535813;32;34028;-87
2022/01/25 07:55:39;;;;;;;50.78;21.17;;;;;;;-4.19;80.17;101982.97;5534253;32;34731;-87
2022/01/25 07:58:42;;;;;;;58.83;22.85;;;;;;;-4.24;80.43;101971.53;5535476;32;34526;-85
2022/01/25 08:01:45;;;;;;;47.58;20.75;;;;;;;-4.08;79.91;101979.06;5534240;32;33985;-85
2022/01/25 08:04:55;;;;;;;58.45;22.73;;;;;;;-3.84;79.33;101977.28;5534961;32;33741;-86
2022/01/25 08:08:12;;;;;;;48.40;21.27;;;;;;;-3.60;78.53;101963.41;5533128;32;34222;-89
2022/01/25 08:11:20;;;;;;;43.33;20.58;;;;;;;-3.90;78.99;101956.31;5535955;32;33812;-85
2022/01/25 08:14:23;;;;;;;48.87;21.25;;;;;;;-3.83;79.00;101959.19;5526982;32;34156;-85
2022/01/25 08:17:26;;;;;;;51.78;21.73;;;;;;;-3.79;79.33;101958.47;5542064;32;33735;-85
2022/01/25 08:20:33;;;;;;;52.72;21.70;;;;;;;-3.60;78.66;101956.53;5545599;32;34218;-84
2022/01/25 08:23:41;;;;;;;49.78;22.13;;;;;;;-3.20;77.83;101943.09;5526192;32;34765;-85
2022/01/25 08:26:46;;;;;;;52.62;20.52;;;;;;;-3.31;77.08;101946.25;5525963;32;35209;-85
2022/01/25 08:29:52;;;;;;;59.90;22.95;;;;;;;-3.23;77.02;101949.09;5532701;32;35201;-85
2022/01/25 08:32:54;;;;;;;51.20;21.92;;;;;;;-3.27;77.54;101942.91;5519967;32;34190;-84
2022/01/25 08:35:59;;;;;;;52.25;21.77;;;;;;;-3.31;77.59;101946.25;5516444;32;34499;-86
2022/01/25 08:39:05;;;;;;;53.35;22.90;;;;;;;-2.98;76.80;101942.09;5518760;32;35214;-86
2022/01/25 08:42:13;;;;;;;54.78;23.00;;;;;;;-3.06;76.30;101939.25;5529582;32;34093;-86
2022/01/25 08:45:26;;;;;;;53.55;22.80;;;;;;;-3.09;77.33;101936.56;5529076;32;33900;-84
2022/01/25 08:48:38;;;;;;;60.72;22.02;;;;;;;-3.18;76.96;101934.53;5533831;32;33916;-85
2022/01/25 08:51:42;;;;;;;48.28;21.92;;;;;;;-3.10;77.15;101945.19;5533898;32;34356;-85
2022/01/25 08:54:47;;;;;;;51.25;21.55;;;;;;;-2.93;77.81;101934.47;5533418;32;33816;-85
2022/01/25 08:57:50;;;;;;;51.08;23.38;;;;;;;-2.42;75.93;101924.69;5533233;32;34017;-87
2022/01/25 09:00:59;;;;;;;53.28;24.58;;;;;;;-2.43;75.16;101929.00;5532623;32;33549;-84
2022/01/25 09:04:02;;;;;;;59.88;23.55;;;;;;;-2.34;74.24;101926.69;5533301;32;34015;-83
2022/01/25 09:07:05;;;;;;;48.03;22.33;;;;;;;-2.28;74.67;101930.31;5530774;32;33962;-84
2022/01/25 09:10:09;;;;;;;51.85;22.25;;;;;;;-1.78;73.25;101928.22;5527837;32;34121;-84
2022/01/25 09:13:12;;;;;;;56.92;23.75;;;;;;;-1.63;72.31;101927.72;5524000;32;34026;-85
2022/01/25 09:16:14;;;;;;;51.92;22.35;;;;;;;-1.69;73.49;101927.56;5523894;32;34037;-84
2022/01/25 09:19:18;;;;;;;56.83;24.17;;;;;;;-1.39;72.29;101928.31;5514969;32;34324;-84
2022/01/25 09:22:20;;;;;;;53.28;23.73;;;;;;;-1.65;72.04;101925.94;5532745;32;34638;-84
2022/01/25 09:25:23;;;;;;;56.75;22.17;;;;;;;-1.88;73.18;101928.78;5519317;32;34198;-83
2022/01/25 09:28:26;;;;;;;53.42;23.08;;;;;;;-2.06;73.74;101918.78;5512691;32;34478;-83
2022/01/25 09:31:31;;;;;;;51.55;23.08;;;;;;;-1.76;73.54;101918.72;5516330;32;33976;-83
2022/01/25 09:34:34;;;;;;;50.83;22.85;;;;;;;-1.20;71.95;101913.12;5530746;32;34087;-83
2022/01/25 09:37:37;;;;;;;54.42;22.42;;;;;;;-0.78;69.78;101908.84;5520244;32;33935;-83
2022/01/25 09:40:40;;;;;;;56.42;22.95;;;;;;;-0.73;69.50;101902.03;5526349;32;33807;-87
2022/01/25 09:43:42;;;;;;;44.67;22.40;;;;;;;-0.59;69.49;101897.13;5532792;32;33976;-88
2022/01/25 09:46:45;;;;;;;51.60;22.83;;;;;;;-0.37;68.43;101900.16;5531714;32;34131;-89
2022/01/25 09:49:49;;;;;;;56.53;23.60;;;;;;;-0.07;67.15;101897.28;5519404;32;33974;-89
2022/01/25 09:52:51;;;;;;;54.47;24.12;;;;;;;-0.35;68.06;101888.91;5513071;32;34676;-85
2022/01/25 09:55:54;;;;;;;51.13;24.77;;;;;;;0.12;66.75;101882.88;5513121;32;34388;-84
2022/01/25 09:58:57;;;;;;;49.50;22.45;;;;;;;0.37;65.69;101880.69;5533621;32;34394;-83
2022/01/25 10:02:00;;;;;;;52.75;23.90;;;;;;;0.69;65.40;101876.81;5524021;32;33937;-84
2022/01/25 10:05:33;;;;;;;46.97;23.40;;;;;;;0.97;64.33;101872.00;5522681;32;33924;-84
2022/01/25 10:08:37;;;;;;;55.10;22.95;;;;;;;1.87;61.27;101862.62;5532161;32;34093;-85
2022/01/25 10:11:40;;;;;;;51.97;23.17;;;;;;;1.74;62.31;101865.97;5536393;32;34261;-83
2022/01/25 10:15:12;;;;;;;52.33;21.05;;;;;;;2.02;62.01;101863.66;5537659;32;35037;-83
2022/01/25 10:18:40;;;;;;;46.28;20.90;;;;;;;1.74;63.87;101847.66;5533632;32;34845;-84
2022/01/25 10:21:51;;;;;;;40.40;19.35;;;;;;;2.13;64.77;101846.34;5537720;32;34429;-83
2022/01/25 10:24:53;;;;;;;42.97;18.75;;;;;;;2.06;65.59;101851.50;5537625;32;35249;-84
2022/01/25 10:28:03;;;;;;;38.92;20.02;;;;;;;1.65;66.17;101839.75;5540463;32;34506;-84
2022/01/25 10:31:06;;;;;;;40.70;20.27;;;;;;;1.88;66.88;101832.97;5545943;32;35057;-84
2022/01/25 10:34:11;;;;;;;44.30;20.65;;;;;;;3.21;61.74;101828.69;5540773;32;35227;-85
2022/01/25 10:37:25;;;;;;;38.65;19.30;;;;;;;3.76;59.67;101834.97;5536628;32;34106;-87
2022/01/25 10:40:37;;;;;;;41.63;19.90;;;;;;;4.77;56.70;101823.63;5534322;32;34379;-89
2022/01/25 10:43:46;;;;;;;38.78;20.88;;;;;;;4.94;57.01;101820.94;5535933;32;33590;-86
2022/01/25 10:46:49;;;;;;;42.62;21.15;;;;;;;3.99;58.99;101823.66;5530629;32;34583;-83
2022/01/25 10:49:52;;;;;;;44.42;21.48;;;;;;;3.83;59.46;101817.50;5515742;32;34211;-83
2022/01/25 10:53:11;;;;;;;43.30;21.83;;;;;;;3.29;61.32;101821.72;5514208;32;34381;-85
2022/01/25 10:56:14;;;;;;;46.13;21.15;;;;;;;2.79;63.26;101815.38;5519287;32;35159;-85
2022/01/25 10:59:29;;;;;;;42.47;20.52;;;;;;;2.58;63.94;101819.63;5527723;32;34206;-85
2022/01/25 11:02:34;;;;;;;42.20;20.65;;;;;;;1.99;66.18;101816.50;5537148;32;33917;-84
2022/01/25 11:05:41;;;;;;;40.92;20.85;;;;;;;2.10;65.70;101806.13;5533911;32;33806;-85
2022/01/25 11:08:53;;;;;;;39.92;19.27;;;;;;;1.29;67.66;101803.59;5531734;32;34874;-84
2022/01/25 11:11:56;;;;;;;37.00;19.75;;;;;;;1.46;67.09;101809.00;5531039;32;33846;-85
2022/01/25 11:14:59;;;;;;;41.53;20.08;;;;;;;1.67;65.64;101806.59;5521756;32;34754;-85
2022/01/25 11:18:05;;;;;;;39.90;20.67;;;;;;;1.53;66.50;101804.72;5524479;32;34783;-84
2022/01/25 11:21:10;;;;;;;42.10;20.30;;;;;;;1.37;67.13;101801.06;5528947;32;34174;-85
2022/01/25 11:24:15;;;;;;;39.90;19.23;;;;;;;1.19;68.56;101794.75;5526650;32;34652;-85
2022/01/25 11:27:21;;;;;;;40.65;20.12;;;;;;;1.57;67.44;101788.19;5517760;32;33458;-86
2022/01/25 11:30:24;;;;;;;47.33;20.90;;;;;;;1.74;67.01;101787.50;5530146;32;33661;-86
2022/01/25 11:33:30;;;;;;;41.75;20.80;;;;;;;1.46;67.88;101784.59;5521033;32;34832;-85
2022/01/25 11:36:44;;;;;;;39.42;20.67;;;;;;;1.05;69.38;101780.62;5516742;32;33379;-85
2022/01/25 11:39:49;;;;;;;38.42;19.65;;;;;;;1.17;69.97;101778.16;5530315;32;34688;-86
2022/01/25 11:42:59;;;;;;;38.38;20.50;;;;;;;1.51;73.35;101777.66;5532119;32;33403;-87
2022/01/25 11:46:06;;;;;;;42.65;20.70;;;;;;;2.08;66.96;101785.19;5530610;32;34111;-85
2022/01/25 11:49:18;;;;;;;45.35;20.20;;;;;;;2.06;66.94;101780.81;5545297;32;33901;-84
2022/01/25 11:52:24;;;;;;;41.58;20.48;;;;;;;1.80;68.25;101776.22;5539538;32;33719;-88
2022/01/25 11:55:36;;;;;;;41.95;20.55;;;;;;;1.34;70.73;101774.88;5548995;32;34178;-85
2022/01/25 11:58:41;;;;;;;42.40;19.98;;;;;;;1.64;70.25;101769.94;5545531;32;34830;-84
2022/01/25 12:01:49;;;;;;;42.40;20.60;;;;;;;1.93;69.66;101766.72;5548004;32;33538;-84
2022/01/25 12:05:03;;;;;;;43.15;21.33;;;;;;;1.84;70.28;101759.66;5546896;32;34427;-84
2022/01/25 12:08:15;;;;;;;42.28;19.62;;;;;;;1.83;70.67;101753.56;5548654;32;33860;-85
2022/01/25 12:11:27;;;;;;;38.67;20.40;;;;;;;1.58;72.31;101750.72;5544971;32;34109;-84
2022/01/25 12:14:51;;;;;;;38.95;19.58;;;;;;;1.77;72.27;101747.41;5547134;32;33681;-84
2022/01/25 12:17:54;;;;;;;;;;;;;;;2.09;71.13;101737.19;5556853;32;34063;-85
2022/01/25 12:20:57;;;;;;;40.42;18.92;;;;;;;2.21;71.18;101739.03;5557782;32;34123;-84
2022/01/25 12:24:40;;;;;;;37.42;18.33;;;;;;;2.31;71.19;101726.00;5561505;32;34107;-85
2022/01/25 12:27:48;;;;;;;34.47;18.05;;;;;;;2.38;71.14;101720.81;5541216;32;33868;-85
2022/01/25 12:30:51;;;;;;;35.88;17.92;;;;;;;2.33;71.86;101730.38;5545219;32;34035;-86
2022/01/25 12:34:32;;;;;;;33.83;18.35;;;;;;;2.27;72.08;101723.34;5541456;32;34889;-85
2022/01/25 12:37:44;;;;;;;34.88;18.27;;;;;;;2.21;72.94;101723.31;5538836;32;34863;-85
2022/01/25 12:40:56;;;;;;;39.90;18.40;;;;;;;1.96;73.54;101720.50;5532657;32;34198;-85
2022/01/25 12:44:02;;;;;;;37.03;19.17;;;;;;;1.91;73.43;101722.22;5543224;32;34091;-86
2022/01/25 12:47:05;;;;;;;33.70;17.85;;;;;;;2.15;72.95;101715.41;5539094;32;34043;-85
2022/01/25 12:50:09;;;;;;;38.58;19.75;;;;;;;2.36;72.05;101713.81;5550229;32;34322;-86
2022/01/25 12:53:16;;;;;;;36.80;19.30;;;;;;;2.10;73.05;101711.87;5544741;32;34452;-86
2022/01/25 12:56:24;;;;;;;38.88;18.77;;;;;;;2.15;72.75;101697.97;5544598;32;34111;-85
2022/01/25 12:59:29;;;;;;;38.75;19.90;;;;;;;2.00;73.58;101695.25;5554431;32;34465;-86
2022/01/25 13:02:32;;;;;;;40.47;18.92;;;;;;;2.27;72.84;101689.31;5548617;32;33721;-86
2022/01/25 13:05:41;;;;;;;44.40;20.95;;;;;;;1.80;75.26;101693.34;5566376;31;33975;-86
2022/01/25 13:08:57;;;;;;;39.55;19.87;;;;;;;2.15;74.20;101682.28;5541149;32;34406;-86
2022/01/25 13:15:27;;;;;;;39.38;19.85;;;;;;;1.69;76.25;101677.56;5537041;32;34036;-86
2022/01/25 13:18:30;;;;;;;40.80;20.80;;;;;;;1.90;75.35;101667.28;5537313;32;34317;-86
2022/01/25 13:21:48;;;;;;;40.72;21.12;;;;;;;1.44;76.90;101655.56;5538804;32;34767;-86
2022/01/25 13:25:26;;;;;;;40.67;21.52;;;;;;;0.96;79.25;101660.31;5536995;32;34369;-86
2022/01/25 13:28:37;;;;;;;41.50;20.37;;;;;;;0.42;82.40;101663.16;5537674;32;35150;-86
2022/01/25 13:31:52;;;;;;;41.67;20.80;;;;;;;0.22;83.59;101654.22;5537033;32;34445;-87
2022/01/25 13:35:30;;;;;;;40.58;21.25;;;;;;;0.35;83.41;101651.78;5538928;32;34033;-87
2022/01/25 13:38:39;;;;;;;42.00;20.83;;;;;;;0.36;83.98;101641.31;5561177;32;34013;-87
2022/01/25 13:41:51;;;;;;;37.92;19.62;;;;;;;0.47;84.02;101641.50;5565580;32;34893;-87
2022/01/25 13:48:35;;;;;;;44.00;20.55;;;;;;;0.43;86.08;101642.28;5550981;32;34840;-87
2022/01/25 13:51:49;;;;;;;44.55;20.15;;;;;;;0.72;85.03;101636.56;5537507;32;33921;-87
2022/01/25 13:55:11;;;;;;;47.42;22.70;;;;;;;0.72;85.03;101639.16;5538851;32;34249;-87
2022/01/25 13:58:25;;;;;;;50.75;23.60;;;;;;;0.68;85.69;101626.91;5542618;32;34468;-86
2022/01/25 14:01:30;;;;;;;44.85;22.80;;;;;;;0.62;86.25;101625.12;5546557;32;34345;-86
2022/01/25 14:04:37;;;;;;;47.40;22.95;;;;;;;0.36;87.46;101624.81;5542262;32;33953;-87
2022/01/25 14:07:40;;;;;;;42.83;20.45;;;;;;;0.53;86.93;101625.91;5544973;32;33771;-87
2022/01/25 14:10:47;;;;;;;47.62;21.90;;;;;;;0.75;86.56;101623.50;5554746;32;34702;-88
2022/01/25 14:24:04;;;;;;;43.78;21.65;;;;;;;0.38;87.91;101623.09;5542155;32;34610;-87
2022/01/25 14:27:17;;;;;;;46.83;22.23;;;;;;;0.55;87.23;101625.03;5563313;32;34182;-86
2022/01/25 14:30:20;;;;;;;48.08;22.73;;;;;;;0.53;86.84;101617.16;5574908;32;33940;-87
2022/01/25 14:33:34;;;;;;;44.47;21.83;;;;;;;0.70;86.39;101622.59;5574547;32;34473;-86
2022/01/25 14:36:42;;;;;;;48.15;22.23;;;;;;;0.81;85.70;101617.50;5580679;32;33707;-90
2022/01/25 14:39:45;;;;;;;43.20;21.83;;;;;;;0.69;86.02;101622.59;5557323;32;34798;-86
2022/01/25 14:42:50;;;;;;;42.60;22.02;;;;;;;0.49;86.86;101623.22;5554838;32;33894;-87
2022/01/25 14:46:06;;;;;;;47.67;22.35;;;;;;;0.54;86.92;101624.13;5575440;32;34041;-87
2022/01/25 14:49:34;;;;;;;47.33;22.50;;;;;;;0.61;86.42;101633.78;5570578;32;33901;-87
2022/01/25 14:52:37;;;;;;;48.40;22.67;;;;;;;0.49;87.10;101638.88;5539214;32;33708;-87
2022/01/25 14:55:42;;;;;;;45.50;22.10;;;;;;;0.31;87.95;101645.62;5534405;32;33976;-86
2022/01/25 15:02:10;;;;;;;51.80;24.37;;;;;;;0.50;87.09;101641.50;5545092;32;34429;-87
2022/01/25 15:05:14;;;;;;;48.87;24.70;;;;;;;0.55;86.76;101644.16;5544111;32;34232;-87
2022/01/25 15:08:19;;;;;;;52.20;24.95;;;;;;;0.43;87.29;101631.84;5533290;32;34445;-87
2022/01/25 15:11:23;;;;;;;51.58;24.70;;;;;;;0.15;89.09;101639.31;5550394;32;33920;-87
2022/01/25 15:14:36;;;;;;;58.03;26.17;;;;;;;0.05;89.78;101630.47;5556026;26;34091;-88
2022/01/25 15:17:39;;;;;;;61.97;29.00;;;;;;;-0.05;90.75;101632.06;5549771;32;35108;-88
2022/01/25 15:20:42;;;;;;;56.40;27.00;;;;;;;0.00;90.60;101634.78;5550885;26;34654;-87
2022/01/25 15:23:48;;;;;;;56.78;27.35;;;;;;;0.04;90.50;101635.69;5547366;32;33495;-87
2022/01/25 15:26:54;;;;;;;60.92;28.30;;;;;;;-0.02;90.91;101634.75;5544484;32;34772;-86
2022/01/25 15:29:58;;;;;;;62.33;29.63;;;;;;;0.02;90.74;101629.56;5545268;32;34217;-86
2022/01/25 15:33:00;;;;;;;64.93;29.87;;;;;;;-0.07;91.13;101632.91;5553700;32;34064;-86
2022/01/25 15:36:06;;;;;;;64.22;30.73;;;;;;;-0.31;92.93;101634.28;5552050;32;34750;-88
2022/01/25 15:39:13;;;;;;;65.37;32.10;;;;;;;-0.38;93.19;101635.94;5616894;26;34576;-88
2022/01/25 15:42:18;;;;;;;66.47;31.02;;;;;;;-0.36;93.64;101643.78;5648090;26;34605;-87
2022/01/25 15:45:28;;;;;;;67.53;31.10;;;;;;;-0.31;93.48;101637.78;5575847;31;34196;-90
2022/01/25 15:48:33;;;;;;;66.07;29.95;;;;;;;-0.46;94.41;101632.34;5572077;32;34340;-91
2022/01/25 15:51:36;;;;;;;67.62;31.40;;;;;;;-0.46;94.80;101635.81;5583032;31;34212;-88
2022/01/25 15:54:41;;;;;;;63.92;31.73;;;;;;;-0.49;95.00;101633.16;5591179;31;33791;-88
2022/01/25 15:57:44;;;;;;;70.87;31.90;;;;;;;-0.37;94.39;101631.56;5581992;31;34057;-87
2022/01/25 16:00:47;;;;;;;70.12;30.25;;;;;;;-0.49;95.30;101633.16;5574726;32;33641;-87
2022/01/25 16:03:52;;;;;;;65.47;30.17;;;;;;;-0.45;95.43;101632.34;5575874;32;34392;-87
2022/01/25 16:06:57;;;;;;;63.72;29.02;;;;;;;-0.32;94.92;101641.25;5575305;32;33881;-87
2022/01/25 16:10:00;;;;;;;63.95;30.55;;;;;;;-0.28;94.63;101635.22;5575291;32;34036;-87
2022/01/25 16:13:03;;;;;;;62.45;30.73;;;;;;;-0.46;96.20;101634.94;5572113;32;33923;-87
2022/01/25 16:16:06;;;;;;;70.03;31.17;;;;;;;-0.35;95.96;101635.97;5569966;32;33817;-87
2022/01/25 16:19:09;;;;;;;69.30;30.80;;;;;;;-0.07;94.69;101630.28;5573431;32;34008;-87
2022/01/25 16:22:12;;;;;;;63.70;31.33;;;;;;;-0.28;95.34;101627.41;5576200;32;34834;-87
2022/01/25 16:25:21;;;;;;;67.53;31.45;;;;;;;-0.33;95.92;101628.19;5584625;31;34668;-87
2022/01/25 16:28:24;;;;;;;64.53;29.98;;;;;;;-0.31;95.97;101632.56;5583625;32;33979;-88
2022/01/25 16:31:32;;;;;;;62.78;31.23;;;;;;;0.07;96.45;101631.38;5575788;32;33738;-87
2022/01/25 16:34:37;;;;;;;65.82;30.08;;;;;;;0.67;93.02;101631.25;5575630;32;34342;-87
2022/01/25 16:37:41;;;;;;;65.53;32.08;;;;;;;0.25;92.76;101629.91;5575204;32;34077;-87
2022/01/25 16:40:44;;;;;;;73.70;33.28;;;;;;;-0.07;95.01;101636.41;5575386;32;34996;-87
